Terminal Aerodrome Forecast
Issued by NWS

Home | Current Version | Previous Version | Text Only | Print | Product List | Glossary On
Versions: 1 2 3 4 5 6 7 8 9 10 11 12
000
FTUS45 KVEF 260520
TAFVGT
TAF
KVGT 260520Z 2606/2706 21013KT P6SM FEW250
     FM261100 VRB06KT P6SM FEW250
     FM262100 23015G22KT P6SM FEW250
     FM270500 26011KT P6SM SKC=

USA.gov is the U.S. government's official web portal to all federal, state and local government web resources and services.